Nandrin, Belgium
Current Conditions -  °F | °C
As of 9:20 AM on Saturday 29 Nov 2014 (Local Time) from EBLG Reporting Station
Clear Clear  
Wind Chill: 32°   Ceiling: Unl
Heat Index: 36°   Visibility: 4mi
Dew Point: 34°   Wind: 5mph
Humidity: 93%   Direction: 70°ENE
Pressure: 29.88"   Gusts: NA
Location:  50.51°N, 5.42°E
Report Text: EBLG 290820Z 07004KT 6000 NSC 02/01 Q1012 NOSIG
Loading
Personal Weather Stations






























Interactive Weather Map New forecast layout! Learn more

10-Day Weather Forecast

Advertisements
Track Severe Weather on mobile